Altus, Oklahoma
Current Conditions -  °F | °C
As of 1:58 PM on Monday 24 Nov 2014 (Local Time) from KLTS Reporting Station
Clear Clear  
Wind Chill: 60°   Ceiling: Unl
Heat Index: 60°   Visibility: 10mi
Dew Point: 24°   Wind: 14mph
Humidity: 25%   Direction: 270°W
Pressure: 30.01"   Gusts: 17mph
Location:  34.64°N, 99.33°W
Report Text: KLTS 241958Z AUTO 27012G15KT 10SM CLR 16/M04 A3001 RMK AO2 SLP163 T01551044 $
Loading
Personal Weather Stations






























Interactive Weather Map New forecast layout! Learn more

10-Day Weather Forecast

Advertisements
Track Severe Weather on mobile